sensor_id;sensor_type;location;lat;lon;timestamp;pressure;altitude;pressure_sealevel;temperature;humidity
65175;BME280;51761;42.126;24.752;2023-04-15T00:01:58;98860.97;;;13.22;76.75
65175;BME280;51761;42.126;24.752;2023-04-15T00:04:24;98833.47;;;13.08;76.44
65175;BME280;51761;42.126;24.752;2023-04-15T00:06:50;98831.72;;;13.02;76.62
65175;BME280;51761;42.126;24.752;2023-04-15T00:09:20;98843.59;;;13.06;76.93
65175;BME280;51761;42.126;24.752;2023-04-15T00:11:46;98824.22;;;12.77;77.12
65175;BME280;51761;42.126;24.752;2023-04-15T00:14:12;98847.28;;;12.81;77.62
65175;BME280;51761;42.126;24.752;2023-04-15T00:16:38;98838.41;;;12.61;77.97
65175;BME280;51761;42.126;24.752;2023-04-15T00:19:03;98862.53;;;12.80;77.91
65175;BME280;51761;42.126;24.752;2023-04-15T00:21:29;98858.63;;;12.78;77.95
65175;BME280;51761;42.126;24.752;2023-04-15T00:23:55;98844.69;;;12.65;78.36
65175;BME280;51761;42.126;24.752;2023-04-15T00:26:21;98871.41;;;12.79;78.35
65175;BME280;51761;42.126;24.752;2023-04-15T00:28:47;98854.31;;;12.64;78.70
65175;BME280;51761;42.126;24.752;2023-04-15T00:31:12;98864.47;;;12.71;78.24
65175;BME280;51761;42.126;24.752;2023-04-15T00:33:38;98870.72;;;12.75;79.05
65175;BME280;51761;42.126;24.752;2023-04-15T00:36:05;98829.50;;;12.54;79.39
65175;BME280;51761;42.126;24.752;2023-04-15T00:38:31;98850.50;;;12.58;80.06
65175;BME280;51761;42.126;24.752;2023-04-15T00:40:56;98847.72;;;12.58;79.99
65175;BME280;51761;42.126;24.752;2023-04-15T00:43:22;98854.97;;;12.68;78.92
65175;BME280;51761;42.126;24.752;2023-04-15T00:45:49;98848.66;;;12.77;79.03
65175;BME280;51761;42.126;24.752;2023-04-15T00:48:16;98856.06;;;12.71;78.99
65175;BME280;51761;42.126;24.752;2023-04-15T00:50:42;98863.28;;;12.59;79.31
65175;BME280;51761;42.126;24.752;2023-04-15T00:53:07;98858.47;;;12.60;79.69
65175;BME280;51761;42.126;24.752;2023-04-15T00:55:33;98852.56;;;12.58;79.69
65175;BME280;51761;42.126;24.752;2023-04-15T00:57:59;98854.13;;;12.59;79.50
65175;BME280;51761;42.126;24.752;2023-04-15T01:00:24;98856.97;;;12.68;79.13
65175;BME280;51761;42.126;24.752;2023-04-15T01:02:50;98852.22;;;12.56;79.84
65175;BME280;51761;42.126;24.752;2023-04-15T01:05:16;98840.38;;;12.52;79.78
65175;BME280;51761;42.126;24.752;2023-04-15T01:07:43;98841.28;;;12.49;80.11
65175;BME280;51761;42.126;24.752;2023-04-15T01:10:09;98818.66;;;12.44;79.44
65175;BME280;51761;42.126;24.752;2023-04-15T01:12:34;98819.84;;;12.34;79.46
65175;BME280;51761;42.126;24.752;2023-04-15T01:15:02;98842.13;;;12.25;78.92
65175;BME280;51761;42.126;24.752;2023-04-15T01:17:27;98855.03;;;12.22;78.86
65175;BME280;51761;42.126;24.752;2023-04-15T01:19:55;98836.25;;;12.10;78.23
65175;BME280;51761;42.126;24.752;2023-04-15T01:22:22;98854.16;;;12.13;78.71
65175;BME280;51761;42.126;24.752;2023-04-15T01:24:54;98827.78;;;12.01;78.60
65175;BME280;51761;42.126;24.752;2023-04-15T01:27:21;98860.84;;;12.15;76.57
65175;BME280;51761;42.126;24.752;2023-04-15T01:29:47;98865.06;;;11.98;78.21
65175;BME280;51761;42.126;24.752;2023-04-15T01:32:12;98859.13;;;11.96;78.64
65175;BME280;51761;42.126;24.752;2023-04-15T01:34:38;98838.22;;;11.76;78.24
65175;BME280;51761;42.126;24.752;2023-04-15T01:37:03;98837.22;;;11.70;78.18
65175;BME280;51761;42.126;24.752;2023-04-15T01:39:29;98856.59;;;11.77;78.23
65175;BME280;51761;42.126;24.752;2023-04-15T01:41:54;98842.03;;;11.69;77.79
65175;BME280;51761;42.126;24.752;2023-04-15T01:44:20;98829.69;;;11.54;77.04
65175;BME280;51761;42.126;24.752;2023-04-15T01:46:45;98861.28;;;11.67;77.78
65175;BME280;51761;42.126;24.752;2023-04-15T01:49:12;98856.91;;;11.66;75.54
65175;BME280;51761;42.126;24.752;2023-04-15T01:51:37;98869.00;;;11.63;76.06
65175;BME280;51761;42.126;24.752;2023-04-15T01:54:03;98875.94;;;11.71;74.72
65175;BME280;51761;42.126;24.752;2023-04-15T01:56:28;98877.59;;;11.56;75.61
65175;BME280;51761;42.126;24.752;2023-04-15T01:58:54;98870.22;;;11.50;75.84
65175;BME280;51761;42.126;24.752;2023-04-15T02:01:19;98906.88;;;11.52;75.47
65175;BME280;51761;42.126;24.752;2023-04-15T02:03:46;98906.56;;;11.50;75.38
65175;BME280;51761;42.126;24.752;2023-04-15T02:06:12;98888.19;;;11.36;75.58
65175;BME280;51761;42.126;24.752;2023-04-15T02:08:37;98909.78;;;11.48;75.68
65175;BME280;51761;42.126;24.752;2023-04-15T02:11:03;98903.09;;;11.58;74.89
65175;BME280;51761;42.126;24.752;2023-04-15T02:13:28;98905.91;;;11.58;73.58
65175;BME280;51761;42.126;24.752;2023-04-15T02:15:54;98888.88;;;11.40;73.76
65175;BME280;51761;42.126;24.752;2023-04-15T02:18:20;98875.44;;;11.35;73.17
65175;BME280;51761;42.126;24.752;2023-04-15T02:20:45;98900.06;;;11.40;73.31
65175;BME280;51761;42.126;24.752;2023-04-15T02:23:11;98900.41;;;11.42;73.19
65175;BME280;51761;42.126;24.752;2023-04-15T02:25:37;98896.13;;;11.38;73.19
65175;BME280;51761;42.126;24.752;2023-04-15T02:28:06;98910.22;;;11.34;73.11
65175;BME280;51761;42.126;24.752;2023-04-15T02:30:32;98908.09;;;11.26;73.47
65175;BME280;51761;42.126;24.752;2023-04-15T02:32:59;98878.41;;;11.03;74.04
65175;BME280;51761;42.126;24.752;2023-04-15T02:35:24;98875.41;;;11.10;73.87
65175;BME280;51761;42.126;24.752;2023-04-15T02:37:51;98880.00;;;11.29;73.60
65175;BME280;51761;42.126;24.752;2023-04-15T02:40:16;98892.56;;;11.37;73.58
65175;BME280;51761;42.126;24.752;2023-04-15T02:42:43;98895.03;;;11.35;73.26
65175;BME280;51761;42.126;24.752;2023-04-15T02:45:09;98899.59;;;11.42;73.37
65175;BME280;51761;42.126;24.752;2023-04-15T02:47:36;98899.72;;;11.38;73.41
65175;BME280;51761;42.126;24.752;2023-04-15T02:50:05;98913.25;;;11.40;73.26
65175;BME280;51761;42.126;24.752;2023-04-15T02:52:31;98910.69;;;11.45;73.64
65175;BME280;51761;42.126;24.752;2023-04-15T02:54:57;98910.72;;;11.58;73.30
65175;BME280;51761;42.126;24.752;2023-04-15T02:57:26;98899.59;;;11.54;73.29
65175;BME280;51761;42.126;24.752;2023-04-15T02:59:53;98909.16;;;11.57;72.53
65175;BME280;51761;42.126;24.752;2023-04-15T03:02:18;98912.59;;;11.48;72.59
65175;BME280;51761;42.126;24.752;2023-04-15T03:04:44;98915.72;;;11.50;72.35
65175;BME280;51761;42.126;24.752;2023-04-15T03:07:09;98897.81;;;11.35;72.58
65175;BME280;51761;42.126;24.752;2023-04-15T03:09:35;98888.72;;;11.31;73.42
65175;BME280;51761;42.126;24.752;2023-04-15T03:12:01;98902.19;;;11.36;73.95
65175;BME280;51761;42.126;24.752;2023-04-15T03:14:26;98922.19;;;11.47;72.78
65175;BME280;51761;42.126;24.752;2023-04-15T03:16:52;98927.53;;;11.29;72.78
65175;BME280;51761;42.126;24.752;2023-04-15T03:19:17;98915.88;;;11.18;72.60
65175;BME280;51761;42.126;24.752;2023-04-15T03:21:43;98937.25;;;11.25;72.73
65175;BME280;51761;42.126;24.752;2023-04-15T03:24:08;98926.72;;;11.16;72.73
65175;BME280;51761;42.126;24.752;2023-04-15T03:26:34;98917.44;;;11.19;72.51
65175;BME280;51761;42.126;24.752;2023-04-15T03:28:59;98943.09;;;11.43;73.59
65175;BME280;51761;42.126;24.752;2023-04-15T03:31:25;98945.47;;;11.44;73.73
65175;BME280;51761;42.126;24.752;2023-04-15T03:33:50;98933.53;;;11.15;73.40
65175;BME280;51761;42.126;24.752;2023-04-15T03:36:16;98932.66;;;11.18;73.08
65175;BME280;51761;42.126;24.752;2023-04-15T03:38:42;98945.53;;;11.28;72.78
65175;BME280;51761;42.126;24.752;2023-04-15T03:41:07;98973.50;;;11.41;72.85
65175;BME280;51761;42.126;24.752;2023-04-15T03:43:33;98980.13;;;11.34;72.52
65175;BME280;51761;42.126;24.752;2023-04-15T03:45:59;98978.81;;;11.10;73.69
65175;BME280;51761;42.126;24.752;2023-04-15T03:48:24;98976.06;;;11.23;74.18
65175;BME280;51761;42.126;24.752;2023-04-15T03:50:50;98982.91;;;11.06;73.68
65175;BME280;51761;42.126;24.752;2023-04-15T03:53:15;98978.47;;;11.08;73.99
65175;BME280;51761;42.126;24.752;2023-04-15T03:55:41;98985.72;;;11.06;75.33
65175;BME280;51761;42.126;24.752;2023-04-15T03:58:06;98995.06;;;10.99;74.26
65175;BME280;51761;42.126;24.752;2023-04-15T04:00:32;98969.69;;;10.94;73.64
65175;BME280;51761;42.126;24.752;2023-04-15T04:02:57;99004.09;;;11.19;73.36
65175;BME280;51761;42.126;24.752;2023-04-15T04:05:23;99000.03;;;11.08;74.49
65175;BME280;51761;42.126;24.752;2023-04-15T04:07:48;99001.00;;;11.01;73.46
65175;BME280;51761;42.126;24.752;2023-04-15T04:10:14;98974.13;;;10.92;74.14
65175;BME280;51761;42.126;24.752;2023-04-15T04:12:39;98998.06;;;10.93;73.30
65175;BME280;51761;42.126;24.752;2023-04-15T04:15:05;98974.69;;;10.71;73.97
65175;BME280;51761;42.126;24.752;2023-04-15T04:17:31;99003.66;;;10.77;72.58
65175;BME280;51761;42.126;24.752;2023-04-15T04:19:57;98981.97;;;10.52;73.62
65175;BME280;51761;42.126;24.752;2023-04-15T04:22:22;99015.47;;;10.68;74.62
65175;BME280;51761;42.126;24.752;2023-04-15T04:24:48;99011.13;;;10.67;72.63
65175;BME280;51761;42.126;24.752;2023-04-15T04:27:14;99000.75;;;10.52;72.68
65175;BME280;51761;42.126;24.752;2023-04-15T04:29:40;98994.00;;;10.33;72.88
65175;BME280;51761;42.126;24.752;2023-04-15T04:32:05;99004.75;;;10.51;73.09
65175;BME280;51761;42.126;24.752;2023-04-15T04:34:31;99011.03;;;10.23;73.56
65175;BME280;51761;42.126;24.752;2023-04-15T04:36:56;98993.56;;;10.19;73.54
65175;BME280;51761;42.126;24.752;2023-04-15T04:39:22;98991.59;;;10.19;73.47
65175;BME280;51761;42.126;24.752;2023-04-15T04:41:48;99017.84;;;10.38;73.25
65175;BME280;51761;42.126;24.752;2023-04-15T04:44:14;99025.44;;;10.37;72.00
65175;BME280;51761;42.126;24.752;2023-04-15T04:46:40;99008.59;;;10.25;72.24
65175;BME280;51761;42.126;24.752;2023-04-15T04:49:05;99025.78;;;10.39;71.79
65175;BME280;51761;42.126;24.752;2023-04-15T04:51:31;99022.88;;;10.43;71.40
65175;BME280;51761;42.126;24.752;2023-04-15T04:53:56;99005.91;;;10.37;71.29
65175;BME280;51761;42.126;24.752;2023-04-15T04:56:22;99030.50;;;10.42;71.77
65175;BME280;51761;42.126;24.752;2023-04-15T04:58:48;99028.91;;;10.57;71.79
65175;BME280;51761;42.126;24.752;2023-04-15T05:01:13;99029.34;;;10.56;71.95
65175;BME280;51761;42.126;24.752;2023-04-15T05:03:39;99011.13;;;10.51;72.00
65175;BME280;51761;42.126;24.752;2023-04-15T05:06:05;99025.38;;;10.85;71.04
65175;BME280;51761;42.126;24.752;2023-04-15T05:08:31;99013.44;;;10.85;70.88
65175;BME280;51761;42.126;24.752;2023-04-15T05:10:57;99025.44;;;11.13;70.98
65175;BME280;51761;42.126;24.752;2023-04-15T05:13:22;99002.19;;;11.16;70.16
65175;BME280;51761;42.126;24.752;2023-04-15T05:15:48;99031.00;;;11.42;69.53
65175;BME280;51761;42.126;24.752;2023-04-15T05:18:13;99035.44;;;11.55;68.99
65175;BME280;51761;42.126;24.752;2023-04-15T05:20:39;99023.16;;;11.65;68.73
65175;BME280;51761;42.126;24.752;2023-04-15T05:23:04;99005.16;;;11.66;68.42
65175;BME280;51761;42.126;24.752;2023-04-15T05:25:30;99028.69;;;11.94;68.61
65175;BME280;51761;42.126;24.752;2023-04-15T05:27:55;99019.50;;;12.18;68.21
65175;BME280;51761;42.126;24.752;2023-04-15T05:30:21;99005.50;;;12.18;67.29
65175;BME280;51761;42.126;24.752;2023-04-15T05:32:46;99035.63;;;12.39;67.87
65175;BME280;51761;42.126;24.752;2023-04-15T05:35:12;99026.66;;;12.57;67.40
65175;BME280;51761;42.126;24.752;2023-04-15T05:37:37;99036.94;;;12.72;66.96
65175;BME280;51761;42.126;24.752;2023-04-15T05:40:03;99049.91;;;13.03;65.42
65175;BME280;51761;42.126;24.752;2023-04-15T05:42:29;99059.47;;;13.27;64.82
65175;BME280;51761;42.126;24.752;2023-04-15T05:44:54;99040.38;;;13.35;64.41
65175;BME280;51761;42.126;24.752;2023-04-15T05:47:20;99053.75;;;13.52;62.54
65175;BME280;51761;42.126;24.752;2023-04-15T05:49:45;99056.81;;;13.67;61.17
65175;BME280;51761;42.126;24.752;2023-04-15T05:52:11;99057.25;;;13.87;61.63
65175;BME280;51761;42.126;24.752;2023-04-15T05:54:36;99062.22;;;13.83;60.11
65175;BME280;51761;42.126;24.752;2023-04-15T05:57:02;99070.03;;;14.09;60.35
65175;BME280;51761;42.126;24.752;2023-04-15T05:59:28;99079.72;;;14.38;59.09
65175;BME280;51761;42.126;24.752;2023-04-15T06:01:53;99091.34;;;14.49;58.56
65175;BME280;51761;42.126;24.752;2023-04-15T06:04:19;99089.38;;;14.68;58.46
65175;BME280;51761;42.126;24.752;2023-04-15T06:06:44;99080.00;;;14.62;58.04
65175;BME280;51761;42.126;24.752;2023-04-15T06:09:10;99060.91;;;14.57;57.58
65175;BME280;51761;42.126;24.752;2023-04-15T06:11:36;99091.97;;;14.93;57.30
65175;BME280;51761;42.126;24.752;2023-04-15T06:14:01;99089.72;;;15.36;56.36
65175;BME280;51761;42.126;24.752;2023-04-15T06:16:27;99093.47;;;15.96;56.63
65175;BME280;51761;42.126;24.752;2023-04-15T06:18:53;99082.28;;;17.26;54.27
65175;BME280;51761;42.126;24.752;2023-04-15T06:21:18;99073.19;;;18.35;49.77
65175;BME280;51761;42.126;24.752;2023-04-15T06:23:44;99080.78;;;19.27;47.97
65175;BME280;51761;42.126;24.752;2023-04-15T06:26:09;99090.69;;;20.48;47.11
65175;BME280;51761;42.126;24.752;2023-04-15T06:28:35;99111.03;;;21.08;44.01
65175;BME280;51761;42.126;24.752;2023-04-15T06:31:00;99117.41;;;21.28;44.14
65175;BME280;51761;42.126;24.752;2023-04-15T06:33:26;99116.09;;;21.71;40.97
65175;BME280;51761;42.126;24.752;2023-04-15T06:35:52;99101.94;;;21.88;42.52
65175;BME280;51761;42.126;24.752;2023-04-15T06:38:17;99094.53;;;22.12;40.26
65175;BME280;51761;42.126;24.752;2023-04-15T06:40:43;99107.28;;;22.55;43.81
65175;BME280;51761;42.126;24.752;2023-04-15T06:43:08;99094.84;;;22.52;40.09
65175;BME280;51761;42.126;24.752;2023-04-15T06:45:34;99112.47;;;22.89;43.21
65175;BME280;51761;42.126;24.752;2023-04-15T06:48:00;99106.22;;;23.29;40.37
65175;BME280;51761;42.126;24.752;2023-04-15T06:50:25;99111.91;;;23.40;40.41
65175;BME280;51761;42.126;24.752;2023-04-15T06:52:53;99108.78;;;24.12;38.34
65175;BME280;51761;42.126;24.752;2023-04-15T06:55:18;99120.00;;;24.44;37.51
65175;BME280;51761;42.126;24.752;2023-04-15T06:57:44;99118.28;;;24.65;37.43
65175;BME280;51761;42.126;24.752;2023-04-15T07:00:10;99120.34;;;25.00;38.31
65175;BME280;51761;42.126;24.752;2023-04-15T07:02:36;99111.25;;;24.31;38.50
65175;BME280;51761;42.126;24.752;2023-04-15T07:05:02;99120.47;;;24.48;38.34
65175;BME280;51761;42.126;24.752;2023-04-15T07:07:29;99127.75;;;24.49;38.28
65175;BME280;51761;42.126;24.752;2023-04-15T07:09:54;99127.06;;;23.87;38.62
65175;BME280;51761;42.126;24.752;2023-04-15T07:12:20;99112.91;;;24.56;39.68
65175;BME280;51761;42.126;24.752;2023-04-15T07:14:46;99118.75;;;25.04;39.03
65175;BME280;51761;42.126;24.752;2023-04-15T07:17:11;99130.38;;;25.65;35.65
65175;BME280;51761;42.126;24.752;2023-04-15T07:19:37;99132.81;;;25.80;36.65
65175;BME280;51761;42.126;24.752;2023-04-15T07:22:02;99138.97;;;26.07;34.76
65175;BME280;51761;42.126;24.752;2023-04-15T07:24:28;99114.84;;;26.03;36.72
65175;BME280;51761;42.126;24.752;2023-04-15T07:26:54;99135.25;;;25.94;36.17
65175;BME280;51761;42.126;24.752;2023-04-15T07:29:23;99145.41;;;26.32;35.12
65175;BME280;51761;42.126;24.752;2023-04-15T07:31:48;99148.16;;;26.93;34.62
65175;BME280;51761;42.126;24.752;2023-04-15T07:34:14;99144.56;;;26.37;34.89
65175;BME280;51761;42.126;24.752;2023-04-15T07:36:41;99127.78;;;26.28;34.35
65175;BME280;51761;42.126;24.752;2023-04-15T07:39:06;99143.28;;;26.56;35.00
65175;BME280;51761;42.126;24.752;2023-04-15T07:41:32;99140.09;;;26.60;36.03
65175;BME280;51761;42.126;24.752;2023-04-15T07:43:57;99129.03;;;26.51;33.70
65175;BME280;51761;42.126;24.752;2023-04-15T07:46:23;99129.06;;;26.64;32.95
65175;BME280;51761;42.126;24.752;2023-04-15T07:48:49;99123.53;;;26.16;35.10
65175;BME280;51761;42.126;24.752;2023-04-15T07:51:15;99121.75;;;26.50;34.67
65175;BME280;51761;42.126;24.752;2023-04-15T07:53:42;99113.44;;;26.28;35.85
65175;BME280;51761;42.126;24.752;2023-04-15T07:56:08;99125.41;;;25.66;35.39
65175;BME280;51761;42.126;24.752;2023-04-15T07:58:34;99132.81;;;25.32;34.76
65175;BME280;51761;42.126;24.752;2023-04-15T08:00:59;99120.19;;;25.46;35.04
65175;BME280;51761;42.126;24.752;2023-04-15T08:03:25;99135.56;;;25.67;33.96
65175;BME280;51761;42.126;24.752;2023-04-15T08:05:50;99141.75;;;25.71;33.24
65175;BME280;51761;42.126;24.752;2023-04-15T08:08:16;99139.13;;;25.25;34.87
65175;BME280;51761;42.126;24.752;2023-04-15T08:10:42;99139.66;;;25.47;35.57
65175;BME280;51761;42.126;24.752;2023-04-15T08:13:07;99122.50;;;25.47;36.18
65175;BME280;51761;42.126;24.752;2023-04-15T08:15:32;99130.16;;;26.05;33.92
65175;BME280;51761;42.126;24.752;2023-04-15T08:17:58;99133.25;;;26.07;34.09
65175;BME280;51761;42.126;24.752;2023-04-15T08:20:25;99147.19;;;26.16;35.41
65175;BME280;51761;42.126;24.752;2023-04-15T08:22:51;99127.06;;;25.85;35.30
65175;BME280;51761;42.126;24.752;2023-04-15T08:25:17;99123.91;;;26.44;34.21
65175;BME280;51761;42.126;24.752;2023-04-15T08:27:44;99134.69;;;26.38;34.05
65175;BME280;51761;42.126;24.752;2023-04-15T08:30:10;99130.31;;;25.47;35.36
65175;BME280;51761;42.126;24.752;2023-04-15T08:32:35;99126.75;;;25.41;34.69
65175;BME280;51761;42.126;24.752;2023-04-15T08:35:02;99123.06;;;25.46;36.14
65175;BME280;51761;42.126;24.752;2023-04-15T08:37:27;99129.34;;;25.87;34.25
65175;BME280;51761;42.126;24.752;2023-04-15T08:39:53;99119.34;;;25.75;34.78
65175;BME280;51761;42.126;24.752;2023-04-15T08:42:23;99108.03;;;25.88;33.80
65175;BME280;51761;42.126;24.752;2023-04-15T08:44:52;99126.31;;;26.40;34.44
65175;BME280;51761;42.126;24.752;2023-04-15T08:47:20;99126.69;;;26.68;34.92
65175;BME280;51761;42.126;24.752;2023-04-15T08:49:47;99127.63;;;26.89;33.79
65175;BME280;51761;42.126;24.752;2023-04-15T08:52:18;99122.22;;;26.54;36.38
65175;BME280;51761;42.126;24.752;2023-04-15T08:54:44;99112.06;;;26.53;34.75
65175;BME280;51761;42.126;24.752;2023-04-15T08:57:10;99124.22;;;26.59;34.12
65175;BME280;51761;42.126;24.752;2023-04-15T08:59:35;99108.41;;;25.97;35.03
65175;BME280;51761;42.126;24.752;2023-04-15T09:02:01;99128.00;;;26.30;34.55
65175;BME280;51761;42.126;24.752;2023-04-15T09:04:27;99129.19;;;26.58;33.66
65175;BME280;51761;42.126;24.752;2023-04-15T09:06:52;99119.75;;;26.26;33.05
65175;BME280;51761;42.126;24.752;2023-04-15T09:09:18;99103.47;;;25.98;34.15
65175;BME280;51761;42.126;24.752;2023-04-15T09:11:43;99109.88;;;25.85;34.42
65175;BME280;51761;42.126;24.752;2023-04-15T09:14:09;99125.31;;;25.77;33.77
65175;BME280;51761;42.126;24.752;2023-04-15T09:16:54;99126.19;;;25.66;33.89
65175;BME280;51761;42.126;24.752;2023-04-15T09:19:22;99129.91;;;25.37;37.12
65175;BME280;51761;42.126;24.752;2023-04-15T09:21:50;99127.22;;;25.45;34.58
65175;BME280;51761;42.126;24.752;2023-04-15T09:24:15;99091.13;;;25.18;36.30
65175;BME280;51761;42.126;24.752;2023-04-15T09:26:41;99118.13;;;24.87;35.68
65175;BME280;51761;42.126;24.752;2023-04-15T09:29:10;99116.19;;;24.71;35.05
65175;BME280;51761;42.126;24.752;2023-04-15T09:31:39;99105.63;;;24.61;35.83
65175;BME280;51761;42.126;24.752;2023-04-15T09:34:05;99102.31;;;24.51;34.38
65175;BME280;51761;42.126;24.752;2023-04-15T09:36:51;99103.59;;;24.85;36.22
65175;BME280;51761;42.126;24.752;2023-04-15T09:39:17;99099.75;;;24.83;36.48
65175;BME280;51761;42.126;24.752;2023-04-15T09:41:43;99101.47;;;24.91;36.74
65175;BME280;51761;42.126;24.752;2023-04-15T09:44:22;99097.28;;;24.68;34.35
65175;BME280;51761;42.126;24.752;2023-04-15T09:46:48;99096.13;;;23.96;35.86
65175;BME280;51761;42.126;24.752;2023-04-15T09:49:13;99095.84;;;24.45;35.83
65175;BME280;51761;42.126;24.752;2023-04-15T09:51:40;99098.84;;;24.64;35.40
65175;BME280;51761;42.126;24.752;2023-04-15T09:54:05;99098.19;;;24.82;35.10
65175;BME280;51761;42.126;24.752;2023-04-15T09:56:35;99092.84;;;24.97;34.76
65175;BME280;51761;42.126;24.752;2023-04-15T09:59:07;99099.16;;;24.90;33.90
65175;BME280;51761;42.126;24.752;2023-04-15T10:01:34;99098.19;;;24.82;34.91
65175;BME280;51761;42.126;24.752;2023-04-15T10:04:03;99085.00;;;25.03;33.15
65175;BME280;51761;42.126;24.752;2023-04-15T10:06:29;99099.91;;;24.90;33.28
65175;BME280;51761;42.126;24.752;2023-04-15T10:08:57;99084.09;;;24.89;33.59
65175;BME280;51761;42.126;24.752;2023-04-15T10:11:23;99082.56;;;25.18;32.64
65175;BME280;51761;42.126;24.752;2023-04-15T10:13:50;99067.28;;;25.10;31.35
65175;BME280;51761;42.126;24.752;2023-04-15T10:16:19;99063.59;;;25.15;32.05
65175;BME280;51761;42.126;24.752;2023-04-15T10:18:46;99071.06;;;24.94;32.26
65175;BME280;51761;42.126;24.752;2023-04-15T10:21:15;99065.03;;;24.73;31.54
65175;BME280;51761;42.126;24.752;2023-04-15T10:23:46;99062.97;;;24.33;31.91
65175;BME280;51761;42.126;24.752;2023-04-15T10:26:12;99059.47;;;24.17;32.79
65175;BME280;51761;42.126;24.752;2023-04-15T10:28:42;99028.81;;;23.77;33.46
65175;BME280;51761;42.126;24.752;2023-04-15T10:31:11;99053.41;;;23.80;34.06
65175;BME280;51761;42.126;24.752;2023-04-15T10:33:38;99055.34;;;24.47;33.64
65175;BME280;51761;42.126;24.752;2023-04-15T10:36:04;99053.16;;;24.29;32.89
65175;BME280;51761;42.126;24.752;2023-04-15T10:43:51;99033.81;;;24.51;32.89
65175;BME280;51761;42.126;24.752;2023-04-15T10:46:24;99042.16;;;24.04;34.17
65175;BME280;51761;42.126;24.752;2023-04-15T10:49:06;99020.44;;;23.95;34.39
65175;BME280;51761;42.126;24.752;2023-04-15T10:51:32;99037.53;;;24.35;35.34
65175;BME280;51761;42.126;24.752;2023-04-15T10:53:58;99032.53;;;24.76;35.47
65175;BME280;51761;42.126;24.752;2023-04-15T10:56:28;99021.56;;;24.86;36.20
65175;BME280;51761;42.126;24.752;2023-04-15T10:58:55;99013.41;;;25.19;37.05
65175;BME280;51761;42.126;24.752;2023-04-15T11:01:53;99034.25;;;25.38;33.57
65175;BME280;51761;42.126;24.752;2023-04-15T11:04:57;99033.84;;;24.75;33.21
65175;BME280;51761;42.126;24.752;2023-04-15T11:07:48;99032.81;;;25.02;33.83
65175;BME280;51761;42.126;24.752;2023-04-15T11:12:43;99015.09;;;24.80;35.41
65175;BME280;51761;42.126;24.752;2023-04-15T11:18:18;98991.06;;;24.94;33.89
65175;BME280;51761;42.126;24.752;2023-04-15T11:20:44;99017.13;;;25.09;33.65
65175;BME280;51761;42.126;24.752;2023-04-15T11:23:10;99001.25;;;25.37;33.38
65175;BME280;51761;42.126;24.752;2023-04-15T11:25:36;99012.34;;;25.22;33.74
65175;BME280;51761;42.126;24.752;2023-04-15T11:28:03;99012.72;;;25.56;35.27
65175;BME280;51761;42.126;24.752;2023-04-15T11:30:32;99016.41;;;25.03;34.10
65175;BME280;51761;42.126;24.752;2023-04-15T11:33:00;99013.13;;;25.23;34.93
65175;BME280;51761;42.126;24.752;2023-04-15T11:35:25;99004.97;;;25.32;34.91
65175;BME280;51761;42.126;24.752;2023-04-15T11:37:51;99011.00;;;25.66;34.06
65175;BME280;51761;42.126;24.752;2023-04-15T11:40:22;99003.09;;;25.35;34.65
65175;BME280;51761;42.126;24.752;2023-04-15T11:43:11;98998.88;;;25.41;34.48
65175;BME280;51761;42.126;24.752;2023-04-15T11:45:50;98979.47;;;25.34;34.39
65175;BME280;51761;42.126;24.752;2023-04-15T11:48:16;98999.66;;;25.42;35.55
65175;BME280;51761;42.126;24.752;2023-04-15T11:50:42;98980.63;;;25.44;34.45
65175;BME280;51761;42.126;24.752;2023-04-15T11:53:10;98995.50;;;25.19;36.10
65175;BME280;51761;42.126;24.752;2023-04-15T11:55:44;98986.53;;;25.04;35.79
65175;BME280;51761;42.126;24.752;2023-04-15T11:58:17;98966.38;;;25.20;34.88
65175;BME280;51761;42.126;24.752;2023-04-15T12:00:51;98964.91;;;24.90;34.55
65175;BME280;51761;42.126;24.752;2023-04-15T12:06:10;98968.50;;;24.90;34.42
65175;BME280;51761;42.126;24.752;2023-04-15T12:16:43;98971.63;;;24.33;35.03
65175;BME280;51761;42.126;24.752;2023-04-15T12:19:12;98966.94;;;24.65;34.72
65175;BME280;51761;42.126;24.752;2023-04-15T12:21:40;98945.94;;;24.33;34.71
65175;BME280;51761;42.126;24.752;2023-04-15T12:24:08;98959.09;;;24.95;34.26
65175;BME280;51761;42.126;24.752;2023-04-15T12:26:42;98961.84;;;25.06;34.37
65175;BME280;51761;42.126;24.752;2023-04-15T12:29:08;98942.75;;;25.38;35.44
65175;BME280;51761;42.126;24.752;2023-04-15T12:31:34;98952.50;;;25.48;34.84
65175;BME280;51761;42.126;24.752;2023-04-15T12:34:01;98951.56;;;25.40;35.44
65175;BME280;51761;42.126;24.752;2023-04-15T12:36:29;98960.88;;;25.22;36.71
65175;BME280;51761;42.126;24.752;2023-04-15T12:39:01;98950.38;;;25.12;35.17
65175;BME280;51761;42.126;24.752;2023-04-15T12:41:27;98950.09;;;25.34;35.17
65175;BME280;51761;42.126;24.752;2023-04-15T12:43:53;98948.09;;;25.05;35.49
65175;BME280;51761;42.126;24.752;2023-04-15T12:46:18;98949.88;;;24.30;37.20
65175;BME280;51761;42.126;24.752;2023-04-15T12:48:44;98962.03;;;24.02;38.33
65175;BME280;51761;42.126;24.752;2023-04-15T12:51:10;98952.72;;;23.55;38.95
65175;BME280;51761;42.126;24.752;2023-04-15T12:53:36;98953.34;;;23.37;39.87
65175;BME280;51761;42.126;24.752;2023-04-15T12:56:01;98978.34;;;23.04;40.88
65175;BME280;51761;42.126;24.752;2023-04-15T12:58:27;98943.50;;;22.54;41.40
65175;BME280;51761;42.126;24.752;2023-04-15T13:00:52;98951.78;;;22.30;42.20
65175;BME280;51761;42.126;24.752;2023-04-15T13:03:18;98966.00;;;22.30;42.87
65175;BME280;51761;42.126;24.752;2023-04-15T13:05:43;98969.38;;;22.07;43.57
65175;BME280;51761;42.126;24.752;2023-04-15T13:08:09;98959.81;;;21.99;44.27
65175;BME280;51761;42.126;24.752;2023-04-15T13:10:34;98957.19;;;21.90;44.18